Time;durP1;ratioP1;P1;durP2;ratioP2;P2;SDS_P1;SDS_P2;PMS_P1;PMS_P2;Temp;Humidity;BMP_temperature;BMP_pressure;BME280_temperature;BME280_humidity;BME280_pressure;Samples;Min_cycle;Max_cycle;Signal;HPM_P1;HPM_P2
2024/04/12 00:01:11;;;;;;;1.00;1.00;;;16.40;97.30;;;;;;5446707;26;20280;-66
2024/04/12 00:03:38;;;;;;;2.30;1.63;;;16.40;97.40;;;;;;5439004;26;20253;-65
2024/04/12 00:06:14;;;;;;;1.30;1.20;;;16.30;98.10;;;;;;5437048;26;20234;-65
2024/04/12 00:08:42;;;;;;;1.40;1.30;;;16.30;98.10;;;;;;5439343;26;20236;-65
2024/04/12 00:11:13;;;;;;;1.50;1.40;;;16.30;98.60;;;;;;5440626;26;20670;-66
2024/04/12 00:13:41;;;;;;;1.30;1.20;;;16.30;99.00;;;;;;5435518;26;20285;-66
2024/04/12 00:16:16;;;;;;;1.37;1.10;;;16.30;99.10;;;;;;5435240;26;20352;-65
2024/04/12 00:18:46;;;;;;;1.10;1.10;;;16.30;99.40;;;;;;5448951;26;20234;-65
2024/04/12 00:21:15;;;;;;;1.33;1.20;;;16.20;99.50;;;;;;5435594;26;20281;-65
2024/04/12 00:23:41;;;;;;;1.40;1.30;;;16.30;99.80;;;;;;5431373;26;20702;-67
2024/04/12 00:26:11;;;;;;;1.30;1.17;;;16.20;99.90;;;;;;5440000;26;20304;-64
2024/04/12 00:28:41;;;;;;;1.27;1.17;;;16.20;99.90;;;;;;5445203;26;20228;-65
2024/04/12 00:31:13;;;;;;;1.57;1.47;;;16.20;99.90;;;;;;5450207;26;20234;-66
2024/04/12 00:33:40;;;;;;;1.00;1.00;;;16.20;99.90;;;;;;5448432;26;20257;-65
2024/04/12 00:36:12;;;;;;;1.10;1.00;;;16.20;99.90;;;;;;5448119;26;20276;-65
2024/04/12 00:38:41;;;;;;;2.87;1.30;;;16.20;99.90;;;;;;5446262;26;20281;-64
2024/04/12 00:41:18;;;;;;;1.13;1.03;;;16.20;99.90;;;;;;5447821;26;20234;-65
2024/04/12 00:43:51;;;;;;;1.00;1.00;;;16.20;99.90;;;;;;5450544;26;20769;-65
2024/04/12 00:46:23;;;;;;;1.23;1.13;;;16.20;99.90;;;;;;5447826;26;20276;-64
2024/04/12 00:48:51;;;;;;;1.10;1.00;;;16.20;99.90;;;;;;5450803;26;20230;-64
2024/04/12 00:51:22;;;;;;;0.80;0.80;;;16.20;99.90;;;;;;5447455;26;20313;-64
2024/04/12 00:53:56;;;;;;;1.27;1.00;;;16.20;99.90;;;;;;5450443;26;20771;-64
2024/04/12 00:56:27;;;;;;;0.60;0.60;;;16.30;99.90;;;;;;5447622;26;20280;-64
2024/04/12 00:58:59;;;;;;;0.80;0.80;;;16.30;99.90;;;;;;5445484;26;20290;-64
2024/04/12 01:01:29;;;;;;;0.90;0.90;;;16.30;99.90;;;;;;5449806;26;20382;-65
2024/04/12 01:03:56;;;;;;;0.90;0.90;;;16.30;99.90;;;;;;5450288;26;20226;-64
2024/04/12 01:06:29;;;;;;;0.90;0.90;;;16.30;99.90;;;;;;5443971;26;20290;-65
2024/04/12 01:08:58;;;;;;;1.80;1.17;;;16.30;99.90;;;;;;5455357;26;20264;-66
2024/04/12 01:11:31;;;;;;;0.90;0.90;;;16.30;99.90;;;;;;5457729;26;20230;-67
2024/04/12 01:14:02;;;;;;;1.03;1.03;;;16.30;99.90;;;;;;5450232;26;20242;-67
2024/04/12 01:16:29;;;;;;;1.10;1.10;;;16.30;99.90;;;;;;5427057;26;20290;-65
2024/04/12 01:18:58;;;;;;;1.47;0.90;;;16.30;99.90;;;;;;5458699;26;20249;-65
2024/04/12 01:21:24;;;;;;;0.90;0.90;;;16.30;99.90;;;;;;5454191;26;20230;-65
2024/04/12 01:23:55;;;;;;;1.17;1.10;;;16.30;99.90;;;;;;5439380;26;20238;-66
2024/04/12 01:26:24;;;;;;;1.00;0.87;;;16.30;99.90;;;;;;5433881;26;20234;-65
2024/04/12 01:28:54;;;;;;;1.40;1.30;;;16.30;99.90;;;;;;5447508;26;20269;-65
2024/04/12 01:31:20;;;;;;;1.43;1.33;;;16.30;99.90;;;;;;5448543;26;20706;-65
2024/04/12 01:33:51;;;;;;;1.20;1.10;;;16.30;99.90;;;;;;5436024;26;20230;-66
2024/04/12 01:36:18;;;;;;;1.20;1.10;;;16.30;99.90;;;;;;5427590;26;20288;-65
2024/04/12 01:38:53;;;;;;;1.13;1.13;;;16.30;99.90;;;;;;5434599;26;20686;-66
2024/04/12 01:41:27;;;;;;;1.00;1.00;;;16.30;99.90;;;;;;5446746;26;21010;-65
2024/04/12 01:44:01;;;;;;;0.70;0.70;;;16.30;99.90;;;;;;5432576;26;20286;-64
2024/04/12 01:46:31;;;;;;;0.90;0.90;;;16.20;99.90;;;;;;5444109;26;20234;-65
2024/04/12 01:48:57;;;;;;;1.03;0.93;;;16.30;99.90;;;;;;5449686;26;20308;-65
2024/04/12 01:51:26;;;;;;;1.00;1.00;;;16.30;99.90;;;;;;5444882;26;20276;-64
2024/04/12 01:53:54;;;;;;;1.00;0.90;;;16.30;99.90;;;;;;5434142;26;20308;-66
2024/04/12 01:56:23;;;;;;;1.30;0.90;;;16.40;99.90;;;;;;5440395;26;20691;-66
2024/04/12 01:58:54;;;;;;;1.33;1.20;;;16.50;99.90;;;;;;5432292;26;20268;-66
2024/04/12 02:01:27;;;;;;;0.70;0.70;;;16.50;99.90;;;;;;5424871;26;20696;-66
2024/04/12 02:03:54;;;;;;;0.70;0.70;;;16.50;99.90;;;;;;5446592;26;20235;-67
2024/04/12 02:06:23;;;;;;;0.80;0.80;;;16.60;99.90;;;;;;5447078;26;20493;-66
2024/04/12 02:08:49;;;;;;;1.00;1.00;;;16.60;99.90;;;;;;5448939;26;20370;-66
2024/04/12 02:11:23;;;;;;;1.30;0.90;;;16.60;99.90;;;;;;5430289;26;20242;-66
2024/04/12 02:13:54;;;;;;;1.23;1.20;;;16.60;99.90;;;;;;5444222;26;20230;-66
2024/04/12 02:16:23;;;;;;;0.77;0.77;;;16.50;99.90;;;;;;5456675;26;20245;-66
2024/04/12 02:18:49;;;;;;;1.37;1.13;;;16.60;99.90;;;;;;5449498;26;21112;-66
2024/04/12 02:21:19;;;;;;;1.40;1.30;;;16.50;99.90;;;;;;5448091;26;20243;-65
2024/04/12 02:23:45;;;;;;;1.20;1.20;;;16.50;99.90;;;;;;5449248;26;20226;-65
2024/04/12 02:26:15;;;;;;;1.50;1.40;;;16.50;99.90;;;;;;5437625;26;20242;-65
2024/04/12 02:28:43;;;;;;;2.73;1.20;;;16.50;99.90;;;;;;5444196;26;20525;-66
2024/04/12 02:31:14;;;;;;;1.23;1.23;;;16.40;99.90;;;;;;5448311;26;20280;-65
2024/04/12 02:33:42;;;;;;;1.20;1.10;;;16.40;99.90;;;;;;5440289;26;20238;-66
2024/04/12 02:36:16;;;;;;;2.43;1.43;;;16.40;99.90;;;;;;5446075;26;20238;-66
2024/04/12 02:38:43;;;;;;;2.53;1.47;;;16.40;99.90;;;;;;5444771;26;20254;-66
2024/04/12 02:41:14;;;;;;;2.00;1.80;;;16.50;99.90;;;;;;5447232;26;20239;-65
2024/04/12 02:43:41;;;;;;;1.80;1.70;;;16.40;99.90;;;;;;5449949;26;20359;-65
2024/04/12 02:46:10;;;;;;;1.43;1.10;;;16.50;99.90;;;;;;5448969;26;20238;-65
2024/04/12 02:48:40;;;;;;;0.90;0.90;;;16.50;99.90;;;;;;5449643;26;20246;-65
2024/04/12 02:51:12;;;;;;;1.17;1.07;;;16.50;99.90;;;;;;5442634;26;20779;-65
2024/04/12 02:53:39;;;;;;;1.47;1.30;;;16.50;99.90;;;;;;5462689;26;20243;-65
2024/04/12 02:56:11;;;;;;;1.23;1.13;;;16.50;99.90;;;;;;5445673;26;20246;-65
2024/04/12 02:58:39;;;;;;;1.90;1.40;;;16.60;99.90;;;;;;5449022;26;20231;-65
2024/04/12 03:01:10;;;;;;;1.43;1.33;;;16.50;99.90;;;;;;5455008;26;20307;-65
2024/04/12 03:03:41;;;;;;;1.27;1.17;;;16.50;99.90;;;;;;5426848;26;20235;-66
2024/04/12 03:06:11;;;;;;;1.50;1.40;;;16.50;99.90;;;;;;5446167;26;20235;-65
2024/04/12 03:08:39;;;;;;;1.00;1.00;;;16.50;99.90;;;;;;5446335;26;20618;-66
2024/04/12 03:11:14;;;;;;;1.10;1.10;;;16.50;99.90;;;;;;5444790;26;20531;-65
2024/04/12 03:13:41;;;;;;;1.00;0.90;;;16.50;99.90;;;;;;5459191;26;20277;-66
2024/04/12 03:16:16;;;;;;;1.40;1.30;;;16.50;99.90;;;;;;5438915;26;20625;-65
2024/04/12 03:18:46;;;;;;;1.00;1.00;;;16.50;99.90;;;;;;5448251;26;20870;-65
2024/04/12 03:21:17;;;;;;;1.43;1.13;;;16.50;99.90;;;;;;5430226;26;20601;-66
2024/04/12 03:23:43;;;;;;;0.80;0.80;;;16.60;99.90;;;;;;5445252;26;20273;-65
2024/04/12 03:26:14;;;;;;;1.80;1.00;;;16.60;99.90;;;;;;5432261;26;20283;-65
2024/04/12 03:28:40;;;;;;;1.00;1.00;;;16.60;99.90;;;;;;5436443;26;20362;-65
2024/04/12 03:31:11;;;;;;;0.97;0.97;;;16.60;99.90;;;;;;5446971;26;20606;-66
2024/04/12 03:33:42;;;;;;;0.80;0.80;;;16.60;99.90;;;;;;5448427;26;20223;-65
2024/04/12 03:41:57;;;;;;;1.87;1.60;;;16.60;99.90;;;;;;5427982;25;20585;-66
2024/04/12 03:44:30;;;;;;;1.30;1.20;;;16.60;99.90;;;;;;5390245;26;20235;-65
2024/04/12 03:47:01;;;;;;;0.80;0.80;;;16.50;99.90;;;;;;5402362;26;20259;-66
2024/04/12 03:49:28;;;;;;;1.50;1.20;;;16.60;99.90;;;;;;5406538;26;20592;-65
2024/04/12 03:51:58;;;;;;;1.00;1.00;;;16.60;99.90;;;;;;5411723;26;20716;-65
2024/04/12 03:54:25;;;;;;;1.33;1.23;;;16.50;99.90;;;;;;5408294;26;20277;-65
2024/04/12 03:57:05;;;;;;;1.00;0.90;;;16.50;99.90;;;;;;5393958;26;20303;-66
2024/04/12 03:59:34;;;;;;;0.80;0.80;;;16.40;99.90;;;;;;5375328;26;20362;-66
2024/04/12 04:02:07;;;;;;;0.80;0.80;;;16.50;99.90;;;;;;5394979;26;20282;-67
2024/04/12 04:04:38;;;;;;;0.80;0.80;;;16.50;99.90;;;;;;5390515;26;20229;-67
2024/04/12 04:07:05;;;;;;;0.97;0.80;;;16.50;99.90;;;;;;5395725;26;20472;-66
2024/04/12 04:09:35;;;;;;;0.90;0.90;;;16.50;99.90;;;;;;5395656;26;20247;-66
2024/04/12 04:12:07;;;;;;;0.73;0.73;;;16.50;99.90;;;;;;5396524;26;20730;-66
2024/04/12 04:14:33;;;;;;;1.10;1.10;;;16.50;99.90;;;;;;5398663;26;20239;-66
2024/04/12 04:17:03;;;;;;;0.90;0.90;;;16.60;99.90;;;;;;5401599;26;20303;-65
2024/04/12 04:19:31;;;;;;;0.90;0.90;;;16.50;99.90;;;;;;5396997;26;20687;-65
2024/04/12 04:22:04;;;;;;;0.97;0.97;;;16.60;99.90;;;;;;5395230;26;20244;-66
2024/04/12 04:24:32;;;;;;;1.23;1.13;;;16.60;99.90;;;;;;5401617;26;21247;-65
2024/04/12 04:27:02;;;;;;;1.90;1.07;;;16.60;99.90;;;;;;5402792;26;20249;-67
2024/04/12 04:29:35;;;;;;;1.00;1.00;;;16.60;99.90;;;;;;5400571;26;20387;-66
2024/04/12 04:32:04;;;;;;;1.17;1.10;;;16.60;99.90;;;;;;5395682;26;20303;-67
2024/04/12 04:34:30;;;;;;;1.70;1.17;;;16.50;99.90;;;;;;5401199;26;20232;-66
2024/04/12 04:37:01;;;;;;;1.03;1.03;;;16.50;99.90;;;;;;5401440;26;20240;-66
2024/04/12 04:39:29;;;;;;;0.90;0.90;;;16.60;99.90;;;;;;5406955;26;20232;-66
2024/04/12 04:41:58;;;;;;;1.23;1.20;;;16.50;99.90;;;;;;5404072;26;20322;-65
2024/04/12 04:44:31;;;;;;;1.30;1.20;;;16.50;99.90;;;;;;5408970;26;20291;-66
2024/04/12 04:47:03;;;;;;;1.10;1.00;;;16.50;99.90;;;;;;5404142;26;20390;-65
2024/04/12 04:49:29;;;;;;;2.93;1.20;;;16.50;99.90;;;;;;5412540;26;20335;-66
2024/04/12 04:52:00;;;;;;;4.70;1.10;;;16.60;99.90;;;;;;5392676;26;20733;-66
2024/04/12 04:54:26;;;;;;;0.87;0.87;;;16.60;99.90;;;;;;5379320;26;20248;-66
2024/04/12 04:56:56;;;;;;;1.00;0.90;;;16.60;99.90;;;;;;5375916;26;20536;-65
2024/04/12 04:59:28;;;;;;;0.80;0.80;;;16.60;99.90;;;;;;5379711;26;20271;-65
2024/04/12 05:02:01;;;;;;;0.90;0.90;;;16.60;99.90;;;;;;5378016;26;20240;-66
2024/04/12 05:04:31;;;;;;;0.83;0.83;;;16.60;99.90;;;;;;5383559;26;20617;-65
2024/04/12 05:07:01;;;;;;;1.37;0.93;;;16.70;99.90;;;;;;5368088;26;20242;-65
2024/04/12 05:09:27;;;;;;;1.40;0.80;;;16.70;99.90;;;;;;5368098;26;20684;-67
2024/04/12 05:11:57;;;;;;;1.10;0.87;;;16.70;99.90;;;;;;5381125;26;20333;-66
2024/04/12 05:17:15;;;;;;;1.60;1.50;;;16.70;99.90;;;;;;5382469;26;20237;-66
2024/04/12 05:19:43;;;;;;;1.37;1.27;;;16.60;99.90;;;;;;5392383;26;20251;-66
2024/04/12 05:22:13;;;;;;;1.40;1.20;;;16.60;99.90;;;;;;5386971;26;20241;-66
2024/04/12 05:24:41;;;;;;;1.30;1.20;;;16.60;99.90;;;;;;5395926;26;20254;-66
2024/04/12 05:27:11;;;;;;;1.93;1.70;;;16.60;99.90;;;;;;5385392;26;20242;-65
2024/04/12 05:29:37;;;;;;;1.80;1.70;;;16.70;99.90;;;;;;5398258;26;20235;-66
2024/04/12 05:32:09;;;;;;;1.10;1.10;;;16.70;99.90;;;;;;5385528;26;20248;-66
2024/04/12 05:34:40;;;;;;;1.50;1.40;;;16.70;99.90;;;;;;5377734;26;20244;-65
2024/04/12 05:37:09;;;;;;;1.37;1.27;;;16.70;99.90;;;;;;5385348;26;20240;-65
2024/04/12 05:39:36;;;;;;;1.30;1.20;;;16.80;99.90;;;;;;5398912;26;20251;-65
2024/04/12 05:42:06;;;;;;;1.20;1.10;;;16.80;99.90;;;;;;5379722;26;20287;-65
2024/04/12 05:44:33;;;;;;;1.40;1.30;;;16.80;99.90;;;;;;5402548;26;20547;-65
2024/04/12 05:47:05;;;;;;;1.07;1.07;;;16.80;99.90;;;;;;5381695;26;20296;-66
2024/04/12 05:49:33;;;;;;;0.90;0.90;;;16.70;99.90;;;;;;5384459;26;20354;-65
2024/04/12 05:52:06;;;;;;;0.90;0.90;;;16.70;99.90;;;;;;5380427;26;20759;-66
2024/04/12 05:54:39;;;;;;;1.10;1.00;;;16.70;99.90;;;;;;5383757;26;20267;-66
2024/04/12 05:57:10;;;;;;;1.40;1.10;;;16.70;99.90;;;;;;5364599;26;20233;-66
2024/04/12 05:59:42;;;;;;;1.43;1.33;;;16.70;99.90;;;;;;5384773;26;20238;-65
2024/04/12 06:02:15;;;;;;;4.30;1.40;;;16.70;99.90;;;;;;5381243;26;20244;-65
2024/04/12 06:04:46;;;;;;;1.33;1.20;;;16.80;99.90;;;;;;5356749;26;20357;-66
2024/04/12 06:07:18;;;;;;;1.33;1.30;;;16.80;99.90;;;;;;5371205;26;20240;-66
2024/04/12 06:09:47;;;;;;;1.00;1.00;;;16.80;99.90;;;;;;5374837;26;20367;-67
2024/04/12 06:12:16;;;;;;;2.53;1.30;;;16.80;99.90;;;;;;5374688;26;20238;-67
2024/04/12 06:14:42;;;;;;;0.93;0.93;;;16.80;99.90;;;;;;5379663;26;20724;-67
2024/04/12 06:17:11;;;;;;;1.10;1.10;;;16.80;99.90;;;;;;5377985;26;20597;-67
2024/04/12 06:19:38;;;;;;;2.40;2.20;;;16.80;99.90;;;;;;5380053;26;20656;-66
2024/04/12 06:22:12;;;;;;;3.27;2.13;;;16.80;99.90;;;;;;5374688;26;20242;-66
2024/04/12 06:24:48;;;;;;;2.40;1.87;;;16.80;99.90;;;;;;5382303;26;20231;-66
2024/04/12 06:27:29;;;;;;;7.30;2.80;;;16.80;99.90;;;;;;5390523;26;20236;-66
2024/04/12 06:29:59;;;;;;;2.80;2.60;;;16.80;99.90;;;;;;5377562;26;20292;-67
2024/04/12 06:32:29;;;;;;;2.60;2.40;;;16.80;99.90;;;;;;5395814;26;20276;-66
2024/04/12 06:34:55;;;;;;;3.27;2.13;;;16.80;99.90;;;;;;5380301;26;20232;-67
2024/04/12 06:37:26;;;;;;;3.07;2.77;;;16.70;99.90;;;;;;5390755;26;20274;-67
2024/04/12 06:39:56;;;;;;;2.27;2.07;;;16.80;99.90;;;;;;5376870;26;20284;-67
2024/04/12 06:42:27;;;;;;;1.83;1.73;;;16.80;99.90;;;;;;5394192;26;20240;-68
2024/04/12 06:44:54;;;;;;;2.60;1.90;;;16.80;99.90;;;;;;5381343;26;20333;-67
2024/04/12 06:47:25;;;;;;;1.83;1.73;;;16.80;99.90;;;;;;5371076;26;20236;-67
2024/04/12 06:49:52;;;;;;;3.30;1.90;;;16.80;99.90;;;;;;5370940;26;21327;-67
2024/04/12 06:52:23;;;;;;;1.80;1.50;;;16.90;99.90;;;;;;5360009;26;20253;-66
2024/04/12 06:54:50;;;;;;;2.03;1.70;;;16.90;99.90;;;;;;5361654;26;20252;-67
2024/04/12 06:57:25;;;;;;;3.53;2.60;;;16.90;99.90;;;;;;5367104;26;20297;-67
2024/04/12 06:59:53;;;;;;;2.23;2.03;;;17.00;99.90;;;;;;5353709;26;20256;-67
2024/04/12 07:02:26;;;;;;;2.20;1.90;;;16.90;99.90;;;;;;5397167;26;20300;-66
2024/04/12 07:04:57;;;;;;;2.03;1.83;;;17.00;99.90;;;;;;5395674;26;20239;-66
2024/04/12 07:07:28;;;;;;;2.50;2.07;;;17.00;99.90;;;;;;5348106;26;20705;-65
2024/04/12 07:09:57;;;;;;;2.40;2.07;;;17.10;99.90;;;;;;5378640;26;20248;-66
2024/04/12 07:12:31;;;;;;;1.50;1.40;;;17.10;99.90;;;;;;5359554;26;20577;-67
2024/04/12 07:15:00;;;;;;;3.27;1.80;;;17.10;99.90;;;;;;5360928;26;20685;-67
2024/04/12 07:17:30;;;;;;;2.63;2.40;;;17.00;99.90;;;;;;5376046;26;20236;-66
2024/04/12 07:19:57;;;;;;;2.17;1.87;;;17.00;99.90;;;;;;5373838;26;20233;-66
2024/04/12 07:22:29;;;;;;;1.50;1.40;;;17.10;99.90;;;;;;5342740;26;20244;-67
2024/04/12 07:24:57;;;;;;;3.03;1.80;;;17.10;99.90;;;;;;5396863;26;20241;-67
2024/04/12 07:27:33;;;;;;;2.67;2.00;;;17.10;99.90;;;;;;5392864;26;20934;-67
2024/04/12 07:29:59;;;;;;;2.00;1.90;;;17.10;99.90;;;;;;5382341;26;20285;-66
2024/04/12 07:32:35;;;;;;;2.83;2.00;;;17.10;99.90;;;;;;5382894;26;20640;-67
2024/04/12 07:35:24;;;;;;;3.43;2.10;;;17.10;99.90;;;;;;5369469;26;20284;-67
2024/04/12 07:37:59;;;;;;;1.20;1.10;;;17.10;99.90;;;;;;5365747;26;20402;-66
2024/04/12 07:40:30;;;;;;;2.93;2.10;;;17.10;99.90;;;;;;5393233;26;20296;-67
2024/04/12 07:43:08;;;;;;;2.87;2.20;;;17.20;99.90;;;;;;5376073;26;20300;-67
2024/04/12 07:45:38;;;;;;;3.97;2.00;;;17.10;99.90;;;;;;5365984;26;20735;-67
2024/04/12 07:48:25;;;;;;;2.03;1.93;;;17.20;99.90;;;;;;5391881;26;20244;-67
2024/04/12 07:50:54;;;;;;;5.70;2.07;;;17.20;99.90;;;;;;5367106;26;20989;-67
2024/04/12 07:53:30;;;;;;;2.50;1.83;;;17.20;99.90;;;;;;5375311;26;20280;-66
2024/04/12 07:56:00;;;;;;;3.33;1.80;;;17.20;99.90;;;;;;5374940;26;20232;-67
2024/04/12 07:58:34;;;;;;;3.23;2.00;;;17.10;99.90;;;;;;5365315;26;20240;-67
2024/04/12 08:01:10;;;;;;;5.53;2.67;;;17.20;99.90;;;;;;5360057;26;20858;-67
2024/04/12 08:03:40;;;;;;;2.60;1.70;;;17.20;99.90;;;;;;5380921;26;20337;-66
2024/04/12 08:06:18;;;;;;;1.77;1.43;;;17.20;99.90;;;;;;5377988;26;20613;-66
2024/04/12 08:09:03;;;;;;;1.70;1.60;;;17.20;99.90;;;;;;5375405;26;20463;-67
2024/04/12 08:11:34;;;;;;;2.27;1.70;;;17.20;99.90;;;;;;5368938;26;20373;-67
2024/04/12 08:14:19;;;;;;;1.77;1.60;;;17.30;99.90;;;;;;5353837;26;22909;-67
2024/04/12 08:16:46;;;;;;;2.23;1.33;;;17.30;99.90;;;;;;5364870;26;20246;-67
2024/04/12 08:19:22;;;;;;;1.95;1.45;;;17.40;99.90;;;;;;5378466;26;20332;-67
2024/04/12 08:21:49;;;;;;;1.90;1.40;;;17.40;99.90;;;;;;5349518;26;20586;-67
2024/04/12 08:24:22;;;;;;;2.53;1.77;;;17.50;99.90;;;;;;5372919;26;20285;-66
2024/04/12 08:26:48;;;;;;;1.73;1.37;;;17.50;99.90;;;;;;5375330;26;20283;-67
2024/04/12 08:29:24;;;;;;;1.53;1.23;;;17.50;99.90;;;;;;5373790;26;20242;-67
2024/04/12 08:31:59;;;;;;;1.20;1.10;;;17.50;99.90;;;;;;5369908;26;20302;-67
2024/04/12 08:34:33;;;;;;;1.20;1.17;;;17.60;99.90;;;;;;5381947;26;20242;-67
2024/04/12 08:37:02;;;;;;;2.50;1.83;;;17.70;99.90;;;;;;5382656;26;20287;-67
2024/04/12 08:39:42;;;;;;;2.10;1.67;;;17.70;99.90;;;;;;5366522;26;20241;-67
2024/04/12 08:42:14;;;;;;;1.88;1.52;;;17.80;99.90;;;;;;5374931;26;20235;-68
2024/04/12 08:44:43;;;;;;;1.55;1.42;;;17.80;99.90;;;;;;5366688;26;20246;-66
2024/04/12 08:47:30;;;;;;;1.67;1.55;;;17.80;99.90;;;;;;5358331;26;20237;-67
2024/04/12 08:50:03;;;;;;;1.50;1.40;;;17.80;99.90;;;;;;5390903;26;20240;-67
2024/04/12 08:52:43;;;;;;;1.33;1.20;;;17.80;99.90;;;;;;5378247;26;20290;-67
2024/04/12 08:55:13;;;;;;;2.85;1.60;;;17.80;99.90;;;;;;5355039;26;20239;-67
2024/04/12 08:57:44;;;;;;;2.20;1.70;;;17.70;99.90;;;;;;5365351;26;20838;-66
2024/04/12 09:00:18;;;;;;;1.98;1.52;;;17.70;99.90;;;;;;5432614;26;20314;-66
2024/04/12 09:02:50;;;;;;;2.10;1.70;;;17.80;99.80;;;;;;5384257;26;20239;-67
2024/04/12 09:05:22;;;;;;;1.40;1.30;;;17.80;99.70;;;;;;5388548;26;20285;-67
2024/04/12 09:07:55;;;;;;;1.50;0.90;;;17.80;99.70;;;;;;5381889;26;20591;-66
2024/04/12 09:10:22;;;;;;;1.03;0.90;;;17.90;99.70;;;;;;5379029;26;20255;-66
2024/04/12 09:12:52;;;;;;;2.65;1.02;;;18.00;99.60;;;;;;5378283;26;20244;-66
2024/04/12 09:15:24;;;;;;;1.40;1.30;;;18.00;99.50;;;;;;5367293;26;20351;-65
2024/04/12 09:18:00;;;;;;;1.35;1.13;;;18.20;99.30;;;;;;5387428;26;20242;-66
2024/04/12 09:20:31;;;;;;;1.40;1.15;;;18.40;99.30;;;;;;5376202;26;20275;-67
2024/04/12 09:23:13;;;;;;;2.38;1.10;;;18.40;99.00;;;;;;5384621;26;20246;-67
2024/04/12 09:25:45;;;;;;;2.05;1.25;;;18.50;98.80;;;;;;5372531;26;20301;-66
2024/04/12 09:28:17;;;;;;;1.80;1.10;;;18.60;98.70;;;;;;5380923;26;20797;-66
2024/04/12 09:33:56;;;;;;;1.10;1.00;;;18.70;98.70;;;;;;5236415;27;20357;-67
2024/04/12 09:36:50;;;;;;;2.55;1.00;;;18.70;98.80;;;;;;5262812;27;20365;-67
2024/04/12 09:39:24;;;;;;;2.13;1.50;;;18.70;98.60;;;;;;5331120;26;20283;-67
2024/04/12 09:41:58;;;;;;;1.92;1.45;;;18.70;98.00;;;;;;5370172;26;20391;-68
2024/04/12 09:44:27;;;;;;;2.88;1.60;;;18.60;97.50;;;;;;5366851;26;20266;-66
2024/04/12 10:37:28;;;;;;;1.10;1.00;;;18.50;95.20;;;;;;5374396;26;20685;-68
2024/04/12 10:39:58;;;;;;;0.63;0.63;;;18.50;95.20;;;;;;5375400;26;20797;-68
2024/04/12 10:42:30;;;;;;;1.75;0.98;;;18.60;95.40;;;;;;5384088;26;20236;-68
2024/04/12 10:45:01;;;;;;;1.00;0.90;;;18.80;95.30;;;;;;5376871;26;20286;-67
2024/04/12 10:47:37;;;;;;;0.98;0.90;;;18.80;94.90;;;;;;5380436;26;20281;-69
2024/04/12 10:50:03;;;;;;;1.33;0.95;;;18.80;94.70;;;;;;5375528;26;20568;-68
2024/04/12 10:52:35;;;;;;;1.70;0.85;;;18.80;94.30;;;;;;5384025;26;20278;-66
2024/04/12 10:55:08;;;;;;;2.80;1.35;;;18.80;94.20;;;;;;5377402;26;20349;-67
2024/04/12 10:57:37;;;;;;;1.55;1.15;;;18.80;93.00;;;;;;5396732;26;20248;-68
2024/04/12 11:00:05;;;;;;;3.03;0.80;;;18.80;93.00;;;;;;5378235;26;20236;-67
2024/04/12 11:02:35;;;;;;;2.05;0.80;;;18.70;92.60;;;;;;5374673;26;20248;-67
2024/04/12 11:07:55;;;;;;;0.80;0.80;;;18.80;92.80;;;;;;5360810;26;20283;-67
2024/04/12 11:10:24;;;;;;;1.30;0.95;;;18.90;92.70;;;;;;5379286;26;20283;-69
2024/04/12 11:12:59;;;;;;;1.05;0.95;;;18.90;92.50;;;;;;5376921;26;20240;-67
2024/04/12 11:32:25;;;;;;;1.02;0.93;;;18.90;92.40;;;;;;5376508;26;20248;-68
2024/04/12 11:34:55;;;;;;;0.75;0.73;;;18.90;92.50;;;;;;5434032;26;20763;-68
2024/04/12 11:37:25;;;;;;;1.45;1.15;;;18.90;92.60;;;;;;5374100;26;20244;-68
2024/04/12 11:39:53;;;;;;;1.85;1.20;;;19.00;92.70;;;;;;5371136;26;20700;-68
2024/04/12 11:42:25;;;;;;;1.98;1.00;;;19.10;92.70;;;;;;5369131;26;20366;-67
2024/04/12 11:44:55;;;;;;;1.20;1.10;;;19.10;92.60;;;;;;5375907;26;20228;-67
2024/04/12 11:47:23;;;;;;;1.45;1.20;;;19.10;92.60;;;;;;5372310;26;20232;-67
2024/04/12 11:49:57;;;;;;;1.20;1.20;;;19.00;92.30;;;;;;5374094;26;20326;-67
2024/04/12 11:52:25;;;;;;;1.05;1.00;;;19.00;92.20;;;;;;5385594;26;20644;-67
2024/04/12 11:54:59;;;;;;;0.90;0.90;;;19.10;92.20;;;;;;5373008;26;20607;-67
2024/04/12 11:57:27;;;;;;;1.05;0.90;;;19.10;92.20;;;;;;5371826;26;20236;-68
2024/04/12 11:59:58;;;;;;;1.20;0.82;;;19.30;92.20;;;;;;5372728;26;20236;-68
2024/04/12 12:02:25;;;;;;;0.95;0.95;;;19.30;92.00;;;;;;5359400;26;20228;-68
2024/04/12 12:04:54;;;;;;;1.60;1.05;;;19.40;91.90;;;;;;5377408;26;20732;-69
2024/04/12 12:07:20;;;;;;;4.28;0.90;;;19.50;91.70;;;;;;5376424;26;20260;-68
2024/04/12 12:09:49;;;;;;;1.35;1.10;;;19.50;91.60;;;;;;5377747;26;20260;-68
2024/04/12 12:12:21;;;;;;;1.10;1.00;;;19.50;91.70;;;;;;5370763;26;20232;-68
2024/04/12 12:14:52;;;;;;;0.95;0.88;;;19.60;91.60;;;;;;5372795;26;20252;-68
2024/04/12 12:17:19;;;;;;;1.60;1.27;;;19.70;91.50;;;;;;5379713;26;20287;-68
2024/04/12 12:19:50;;;;;;;7.22;1.30;;;19.70;91.40;;;;;;5376631;26;20244;-68
2024/04/12 12:22:18;;;;;;;3.55;1.33;;;19.70;91.20;;;;;;5379545;26;20688;-69
2024/04/12 12:24:47;;;;;;;2.00;1.10;;;19.60;91.00;;;;;;5363522;26;20248;-69
2024/04/12 12:27:13;;;;;;;1.20;1.10;;;19.50;91.10;;;;;;5377028;26;20248;-68
2024/04/12 12:29:48;;;;;;;0.70;0.70;;;19.50;91.20;;;;;;5383605;26;20235;-69
2024/04/12 12:32:14;;;;;;;1.60;0.80;;;19.50;91.20;;;;;;5383306;26;20247;-69
2024/04/12 12:34:46;;;;;;;0.73;0.73;;;19.50;91.10;;;;;;5388022;26;20316;-67
2024/04/12 12:37:13;;;;;;;2.05;0.98;;;19.50;91.10;;;;;;5382906;26;20673;-67
2024/04/12 12:39:41;;;;;;;0.80;0.80;;;19.50;91.00;;;;;;5403302;26;20286;-66
2024/04/12 12:42:09;;;;;;;1.02;0.88;;;19.50;91.00;;;;;;5388686;26;20266;-66
2024/04/12 12:44:38;;;;;;;0.93;0.90;;;19.60;90.90;;;;;;5388641;26;20317;-67
2024/04/12 12:47:08;;;;;;;0.90;0.90;;;19.70;90.80;;;;;;5385062;26;20414;-68
2024/04/12 12:49:46;;;;;;;3.10;0.93;;;19.70;90.70;;;;;;5357773;26;20240;-67
2024/04/12 12:52:13;;;;;;;0.85;0.85;;;19.70;90.60;;;;;;5373038;26;20232;-67
2024/04/12 12:54:43;;;;;;;1.38;0.82;;;19.80;90.70;;;;;;5382831;26;20237;-67
2024/04/12 12:57:10;;;;;;;1.13;0.90;;;19.90;90.70;;;;;;5376218;26;20684;-68
2024/04/12 12:59:43;;;;;;;1.48;1.00;;;20.00;90.60;;;;;;5385400;26;20236;-67
2024/04/12 13:02:14;;;;;;;1.23;1.10;;;20.10;90.70;;;;;;5385288;26;20232;-67
2024/04/12 13:04:44;;;;;;;1.17;1.08;;;20.20;90.50;;;;;;5390378;26;20289;-66
2024/04/12 13:07:11;;;;;;;2.75;2.45;;;20.40;90.40;;;;;;5384268;26;20561;-67
2024/04/12 13:09:40;;;;;;;3.35;2.80;;;20.40;90.10;;;;;;5385236;26;20260;-66
2024/04/12 13:12:09;;;;;;;2.10;1.98;;;20.40;90.00;;;;;;5379801;26;20236;-67
2024/04/12 13:14:39;;;;;;;1.75;1.65;;;20.40;89.90;;;;;;5406465;26;20244;-68
2024/04/12 13:17:12;;;;;;;2.90;2.65;;;20.40;89.90;;;;;;5371607;26;20236;-67
2024/04/12 13:19:44;;;;;;;3.88;3.00;;;20.40;89.30;;;;;;5378279;26;20240;-67
2024/04/12 13:22:11;;;;;;;3.65;2.85;;;20.40;89.40;;;;;;5377599;26;20271;-67
2024/04/12 13:24:40;;;;;;;2.13;2.00;;;20.40;89.60;;;;;;5378586;26;20271;-68
2024/04/12 13:27:07;;;;;;;3.10;2.08;;;20.30;89.50;;;;;;5375204;26;20287;-68
2024/04/12 13:29:36;;;;;;;2.10;1.25;;;20.20;89.20;;;;;;5378694;26;20235;-67
2024/04/12 13:32:08;;;;;;;1.77;1.60;;;20.10;89.20;;;;;;5375556;26;20233;-67
2024/04/12 13:34:37;;;;;;;1.73;1.33;;;20.10;89.50;;;;;;5378588;26;20279;-67
2024/04/12 13:37:06;;;;;;;1.25;1.15;;;20.00;89.30;;;;;;5436137;26;20340;-67
2024/04/12 13:39:37;;;;;;;0.80;0.80;;;20.00;89.50;;;;;;5385134;26;20260;-67
2024/04/12 13:42:10;;;;;;;3.22;1.00;;;20.00;89.60;;;;;;5378959;26;20684;-67
2024/04/12 13:52:56;;;;;;;0.80;0.80;;;20.10;89.30;;;;;;5394849;26;20776;-67
2024/04/12 13:55:28;;;;;;;0.80;0.80;;;20.30;89.20;;;;;;5391488;26;20278;-67
2024/04/12 13:57:54;;;;;;;1.23;0.70;;;20.40;89.10;;;;;;5376980;26;20228;-68
2024/04/12 14:00:30;;;;;;;0.70;0.70;;;20.40;88.70;;;;;;5394901;26;20239;-66
2024/04/12 14:02:58;;;;;;;0.70;0.70;;;20.40;88.50;;;;;;5382259;26;20364;-67
2024/04/12 14:05:33;;;;;;;1.42;1.20;;;20.50;88.50;;;;;;5375378;26;20793;-66
2024/04/12 14:08:07;;;;;;;1.00;1.00;;;20.40;87.90;;;;;;5370800;26;20286;-66
2024/04/12 14:10:36;;;;;;;0.95;0.95;;;20.50;87.70;;;;;;5375176;26;20708;-67
2024/04/12 14:13:05;;;;;;;0.80;0.80;;;20.60;87.50;;;;;;5435069;26;20607;-67
2024/04/12 14:15:35;;;;;;;0.90;0.90;;;20.60;87.40;;;;;;5386793;26;20237;-67
2024/04/12 14:18:02;;;;;;;1.60;1.27;;;20.60;87.20;;;;;;5381841;26;20266;-67
2024/04/12 14:20:31;;;;;;;1.05;0.90;;;20.70;86.60;;;;;;5379639;26;20765;-68
2024/04/12 14:22:57;;;;;;;1.13;1.00;;;20.70;86.60;;;;;;5387432;26;20231;-67
2024/04/12 14:25:28;;;;;;;0.90;0.90;;;20.70;86.40;;;;;;5376076;26;20282;-67
2024/04/12 14:27:54;;;;;;;0.95;0.95;;;20.70;86.30;;;;;;5380039;26;20350;-66
2024/04/12 14:30:24;;;;;;;0.77;0.70;;;20.70;86.20;;;;;;5389546;26;20248;-67
2024/04/12 14:32:51;;;;;;;0.70;0.70;;;20.70;86.10;;;;;;5384857;26;20274;-67
2024/04/12 14:35:21;;;;;;;1.50;1.00;;;20.70;86.30;;;;;;5378181;26;20236;-67